M/s Stromma Kanal — SJLM — position and weather

sailwx.info

Track history (hours):
 
Tides and Currents Weather Stations Pressure Air Temp Water Temp Dewpoint Dewpoint Depression Visibility Wind Speed Wind Dir Waves Ship Positions

M/s Stromma Kanal

Last reported at 2017-Jun-26 06:28 UTC. Time now 2017-Jun-26 06:56 UTC.
Position N 59°20' E 018°05'.

Length 26 m.

Type: Passenger vessel. MMSI: 265609570.

Date/timePositionNaut miles runAvg speedWind from/ knotsBaromVisibWave heightAir tempDewpointWater temp
2017-Jun-26 06:28N 59°20' E 018°05'0 0.0
2017-Jun-26 05:58N 59°20' E 018°05'0 0.0
2017-Jun-26 05:28N 59°20' E 018°05'0 0.0
2017-Jun-26 04:58N 59°20' E 018°05'0 0.0
2017-Jun-26 04:28N 59°20' E 018°05'0 0.0
2017-Jun-26 03:58N 59°20' E 018°05'0 0.0
2017-Jun-26 03:28N 59°20' E 018°05'0 0.0
2017-Jun-26 02:58N 59°20' E 018°05'0 0.0
2017-Jun-26 02:28N 59°20' E 018°05'0 0.0
2017-Jun-26 01:58N 59°20' E 018°05'0 0.0
2017-Jun-26 01:28N 59°20' E 018°05'0 0.0
2017-Jun-26 00:58N 59°20' E 018°05'0 0.0
2017-Jun-26 00:28N 59°20' E 018°05'0 0.0
2017-Jun-25 23:58N 59°20' E 018°05'0 0.0
2017-Jun-25 23:28N 59°20' E 018°05'0 0.0
2017-Jun-25 22:58N 59°20' E 018°05'0 0.0
2017-Jun-25 22:28N 59°20' E 018°05'0 0.0
2017-Jun-25 21:58N 59°20' E 018°05'0 0.0
2017-Jun-25 21:28N 59°20' E 018°05'0 0.0
2017-Jun-25 20:58N 59°20' E 018°05'0 0.0
2017-Jun-25 20:28N 59°20' E 018°05'0 0.0
2017-Jun-25 19:58N 59°20' E 018°05'0 0.0
2017-Jun-25 19:28N 59°20' E 018°05'0 0.0
2017-Jun-25 18:58N 59°20' E 018°05'0 0.0
2017-Jun-25 18:28N 59°20' E 018°05'0 0.0
2017-Jun-25 17:55N 59°20' E 018°05'0 0.0
2017-Jun-25 17:25N 59°20' E 018°05'0 0.0
2017-Jun-25 16:55N 59°20' E 018°05'0 0.0
2017-Jun-25 16:25N 59°20' E 018°05'0 0.0
2017-Jun-25 15:58N 59°20' E 018°05'2 3.8
2017-Jun-25 15:30N 59°19' E 018°08'3 6.7
2017-Jun-25 15:00N 59°18' E 018°14'5 0.8
2017-Jun-25 09:02N 59°17' E 018°23'1 8.1
2017-Jun-25 08:58N 59°17' E 018°22'4 8.5
2017-Jun-25 08:29N 59°18' E 018°14'3 6.5
2017-Jun-25 08:00N 59°19' E 018°09'2 4.5
2017-Jun-25 07:30N 59°20' E 018°05'0 0.0
2017-Jun-25 06:57N 59°20' E 018°05'0 0.0
2017-Jun-25 06:30N 59°20' E 018°05'0 0.0
2017-Jun-25 05:51N 59°20' E 018°05'0 0.0
2017-Jun-25 05:21N 59°20' E 018°05'0 0.0
2017-Jun-25 04:51N 59°20' E 018°05'0 0.0
2017-Jun-25 04:27N 59°20' E 018°05'0 0.0
2017-Jun-25 03:57N 59°20' E 018°05'0 0.0
2017-Jun-25 03:27N 59°20' E 018°05'0 0.0
2017-Jun-25 02:51N 59°20' E 018°05'0 0.0
2017-Jun-25 02:30N 59°20' E 018°05'0 0.0
2017-Jun-25 02:00N 59°20' E 018°05'0 0.0
2017-Jun-25 01:30N 59°20' E 018°05'0 0.0
2017-Jun-25 01:00N 59°20' E 018°05'0 0.0
2017-Jun-25 00:30N 59°20' E 018°05'0 0.0
2017-Jun-25 00:00N 59°20' E 018°05'0 0.0
2017-Jun-24 23:30N 59°20' E 018°05'0 0.0
2017-Jun-24 23:00N 59°20' E 018°05'0 0.0
2017-Jun-24 22:30N 59°20' E 018°05'0 0.0
2017-Jun-24 22:00N 59°20' E 018°05'0 0.0
2017-Jun-24 21:30N 59°20' E 018°05'0 0.0
2017-Jun-24 21:00N 59°20' E 018°05'0 0.0
2017-Jun-24 20:30N 59°20' E 018°05'0 0.0
2017-Jun-24 20:00N 59°20' E 018°05'0 0.0
2017-Jun-24 19:30N 59°20' E 018°05'0 0.0
2017-Jun-24 19:00N 59°20' E 018°05'0 0.0
2017-Jun-24 18:27N 59°20' E 018°05'0 0.0
2017-Jun-24 17:51N 59°20' E 018°05'0 0.0
2017-Jun-24 17:27N 59°20' E 018°05'0 0.0
2017-Jun-24 16:57N 59°20' E 018°05'0 0.0
2017-Jun-24 16:27N 59°20' E 018°05'0 0.0
2017-Jun-24 15:57N 59°20' E 018°05'1 3.3
2017-Jun-24 15:30N 59°19' E 018°07'4 7.3
2017-Jun-24 14:59N 59°18' E 018°14'4 0.6
2017-Jun-24 08:59N 59°18' E 018°21'4 8.2
2017-Jun-24 08:29N 59°18' E 018°13'3 5.8
2017-Jun-24 08:00N 59°19' E 018°08'2 4.0
2017-Jun-24 07:29N 59°20' E 018°05'0 0.0
2017-Jun-24 06:58N 59°20' E 018°05'0 0.0
2017-Jun-24 06:29N 59°20' E 018°05'0 0.0
2017-Jun-24 05:59N 59°20' E 018°05'0 0.0
2017-Jun-24 05:29N 59°20' E 018°05'0 0.0
2017-Jun-24 04:59N 59°20' E 018°05'0 0.0
2017-Jun-24 04:23N 59°20' E 018°05'0 0.0
2017-Jun-24 03:59N 59°20' E 018°05'0 0.0
2017-Jun-24 03:23N 59°20' E 018°05'0 0.0
2017-Jun-24 02:53N 59°20' E 018°05'0 0.0
2017-Jun-24 02:29N 59°20' E 018°05'0 0.0
2017-Jun-24 01:59N 59°20' E 018°05'0 0.0
2017-Jun-24 01:29N 59°20' E 018°05'0 0.0
2017-Jun-24 00:53N 59°20' E 018°05'0 0.0
2017-Jun-24 00:29N 59°20' E 018°05'0 0.0
2017-Jun-23 23:59N 59°20' E 018°05'0 0.0
2017-Jun-23 23:29N 59°20' E 018°05'0 0.0
2017-Jun-23 22:59N 59°20' E 018°05'0 0.0
2017-Jun-23 22:29N 59°20' E 018°05'0 0.0
2017-Jun-23 21:59N 59°20' E 018°05'0 0.0
2017-Jun-23 21:29N 59°20' E 018°05'0 0.0
2017-Jun-23 20:59N 59°20' E 018°05'0 0.0
2017-Jun-23 20:29N 59°20' E 018°05'4 7.9
2017-Jun-23 20:00N 59°20' E 018°12'5 4.5
2017-Jun-23 18:50N 59°23' E 018°20'2 4.7
2017-Jun-23 18:28N 59°22' E 018°18'4 9.0
2017-Jun-23 17:59N 59°20' E 018°11'3 6.2
2017-Jun-23 17:30N 59°20' E 018°05'0 0.2
2017-Jun-23 16:57N 59°20' E 018°05'0 0.0
2017-Jun-23 16:27N 59°20' E 018°05'0 0.0
2017-Jun-23 15:57N 59°20' E 018°05'2 5.2
2017-Jun-23 15:28N 59°19' E 018°09'3 6.8
2017-Jun-23 15:00N 59°18' E 018°15'4 0.6
2017-Jun-23 09:01N 59°17' E 018°22'0 8.3
2017-Jun-23 08:59N 59°17' E 018°22'4 8.2
2017-Jun-23 08:30N 59°18' E 018°14'3 6.9
2017-Jun-23 08:00N 59°19' E 018°08'2 2.5
2017-Jun-23 07:19N 59°20' E 018°05'0 0.0
2017-Jun-23 06:55N 59°20' E 018°05'0 0.0
2017-Jun-23 06:25N 59°20' E 018°05'0 0.0
2017-Jun-23 05:55N 59°20' E 018°05'0 0.0
2017-Jun-23 05:19N 59°20' E 018°05'0 0.0
2017-Jun-23 04:55N 59°20' E 018°05'0 0.0
2017-Jun-23 04:25N 59°20' E 018°05'0 0.0
2017-Jun-23 03:55N 59°20' E 018°05'0 0.0
2017-Jun-23 03:28N 59°20' E 018°05'0 0.0
2017-Jun-23 02:49N 59°20' E 018°05'0 0.0
2017-Jun-23 02:25N 59°20' E 018°05'0 0.0
2017-Jun-23 01:55N 59°20' E 018°05'0 0.0
2017-Jun-23 01:25N 59°20' E 018°05'0 0.0
2017-Jun-23 00:55N 59°20' E 018°05'0 0.0
2017-Jun-23 00:25N 59°20' E 018°05'0 0.0
2017-Jun-22 23:55N 59°20' E 018°05'0 0.0
2017-Jun-22 23:25N 59°20' E 018°05'0 0.0
2017-Jun-22 22:55N 59°20' E 018°05'0 0.0
2017-Jun-22 22:25N 59°20' E 018°05'0 0.0
2017-Jun-22 21:49N 59°20' E 018°05'0 0.0
2017-Jun-22 21:25N 59°20' E 018°05'0 0.0
2017-Jun-22 20:55N 59°20' E 018°05'0 0.0
2017-Jun-22 20:30N 59°20' E 018°05'4 7.7
2017-Jun-22 19:59N 59°20' E 018°12'3 2.2
2017-Jun-22 18:32N 59°22' E 018°18'0 9.6
2017-Jun-22 18:30N 59°22' E 018°17'4 8.8
2017-Jun-22 18:00N 59°19' E 018°10'3 5.2
2017-Jun-22 17:28N 59°20' E 018°05'0 0.0
2017-Jun-22 16:55N 59°20' E 018°05'0 0.0
2017-Jun-22 16:25N 59°20' E 018°05'0 0.0
2017-Jun-22 15:55N 59°20' E 018°05'0 0.0
2017-Jun-22 15:25N 59°20' E 018°05'0 0.0
2017-Jun-22 14:49N 59°20' E 018°05'0 0.0
2017-Jun-22 14:25N 59°20' E 018°05'0 0.0
2017-Jun-22 13:25N 59°20' E 018°05'0 0.0
2017-Jun-22 12:55N 59°20' E 018°05'0 0.0
2017-Jun-22 12:25N 59°20' E 018°05'0 0.0
2017-Jun-22 11:55N 59°20' E 018°05'0 0.0
2017-Jun-22 11:19N 59°20' E 018°05'0 0.0
2017-Jun-22 10:55N 59°20' E 018°05'0 0.0
2017-Jun-22 10:25N 59°20' E 018°05'0 0.0
2017-Jun-22 09:55N 59°20' E 018°05'0 0.0
2017-Jun-22 09:25N 59°20' E 018°05'0 0.0
2017-Jun-22 08:58N 59°20' E 018°05'0 0.0
2017-Jun-22 08:19N 59°20' E 018°05'0 0.1
2017-Jun-22 07:43N 59°20' E 018°05'0 0.5
2017-Jun-22 07:30N 59°20' E 018°05'0 0.3
2017-Jun-22 06:58N 59°20' E 018°05'0 0.0
2017-Jun-22 06:28N 59°20' E 018°05'0 0.0
2017-Jun-22 05:58N 59°20' E 018°05'0 0.0
2017-Jun-22 05:28N 59°20' E 018°05'0 0.0
2017-Jun-22 04:58N 59°20' E 018°05'0 0.0
2017-Jun-22 04:28N 59°20' E 018°05'0 0.0
2017-Jun-22 03:58N 59°20' E 018°05'0 0.0
2017-Jun-22 03:28N 59°20' E 018°05'0 0.0
2017-Jun-22 02:58N 59°20' E 018°05'0 0.0
2017-Jun-22 02:28N 59°20' E 018°05'0 0.0
2017-Jun-22 01:58N 59°20' E 018°05'0 0.0
2017-Jun-22 01:22N 59°20' E 018°05'0 0.0
2017-Jun-22 00:58N 59°20' E 018°05'0 0.0
2017-Jun-22 00:28N 59°20' E 018°05'0 0.0
2017-Jun-21 23:58N 59°20' E 018°05'0 0.0
2017-Jun-21 23:28N 59°20' E 018°05'0 0.0
2017-Jun-21 22:58N 59°20' E 018°05'0 0.0
2017-Jun-21 22:28N 59°20' E 018°05'0 0.0
2017-Jun-21 21:58N 59°20' E 018°05'0 0.0
2017-Jun-21 21:28N 59°20' E 018°05'0 0.0
2017-Jun-21 20:58N 59°20' E 018°05'0 0.2
2017-Jun-21 20:30N 59°20' E 018°05'4 7.1
2017-Jun-21 19:59N 59°20' E 018°12'510.0
2017-Jun-21 19:30N 59°23' E 018°20'2 2.8
2017-Jun-21 18:57N 59°24' E 018°22'3 5.9
2017-Jun-21 18:27N 59°22' E 018°18'4 9.3
2017-Jun-21 18:00N 59°20' E 018°11'3 6.2
2017-Jun-21 17:30N 59°20' E 018°05'0 0.0
2017-Jun-21 16:54N 59°20' E 018°05'0 0.0
2017-Jun-21 16:24N 59°20' E 018°05'0 0.0
2017-Jun-21 16:00N 59°20' E 018°05'1 1.2
2017-Jun-21 15:30N 59°20' E 018°05'712.4
2017-Jun-21 14:58N 59°22' E 018°17'2 0.2
2017-Jun-21 08:08N 59°23' E 018°20'212.9
2017-Jun-21 08:00N 59°22' E 018°17'613.0
2017-Jun-21 07:30N 59°19' E 018°06'1 1.2
2017-Jun-21 06:59N 59°20' E 018°05'0 0.2
2017-Jun-21 06:29N 59°20' E 018°05'0 0.0
2017-Jun-21 05:59N 59°20' E 018°05'0 0.0
2017-Jun-21 05:29N 59°20' E 018°05'0 0.0
2017-Jun-21 04:53N 59°20' E 018°05'0 0.0
2017-Jun-21 04:29N 59°20' E 018°05'0 0.0
2017-Jun-21 03:59N 59°20' E 018°05'0 0.0
2017-Jun-21 03:29N 59°20' E 018°05'0 0.0
2017-Jun-21 02:53N 59°20' E 018°05'0 0.0
2017-Jun-21 02:29N 59°20' E 018°05'0 0.0
2017-Jun-21 01:59N 59°20' E 018°05'0 0.0
2017-Jun-21 01:29N 59°20' E 018°05'0 0.0
2017-Jun-21 01:00N 59°20' E 018°05'0 0.0
2017-Jun-21 00:29N 59°20' E 018°05'0 0.0
2017-Jun-20 23:59N 59°20' E 018°05'0 0.0
2017-Jun-20 23:29N 59°20' E 018°05'0 0.0
2017-Jun-20 22:59N 59°20' E 018°05'0 0.0
2017-Jun-20 22:29N 59°20' E 018°05'0 0.0
2017-Jun-20 21:59N 59°20' E 018°05'0 0.0
2017-Jun-20 21:29N 59°20' E 018°05'0 0.0
2017-Jun-20 20:59N 59°20' E 018°05'0 0.0
2017-Jun-20 20:31N 59°20' E 018°05'4 7.1
2017-Jun-20 20:00N 59°20' E 018°12'510.0
2017-Jun-20 19:30N 59°23' E 018°20'0 0.3
2017-Jun-20 18:48N 59°23' E 018°20'2 5.0
2017-Jun-20 18:27N 59°22' E 018°18'4 9.2
2017-Jun-20 18:00N 59°20' E 018°11'3 6.1
2017-Jun-20 17:30N 59°20' E 018°05'0 0.0
2017-Jun-20 17:00N 59°20' E 018°05'0 0.0
2017-Jun-20 16:24N 59°20' E 018°05'0 0.0
2017-Jun-20 15:54N 59°20' E 018°05'0 0.0
2017-Jun-20 15:21N 59°20' E 018°05'0 0.0
2017-Jun-20 15:00N 59°20' E 018°05'0 0.0
2017-Jun-20 14:30N 59°20' E 018°05'0 0.0
2017-Jun-20 13:30N 59°20' E 018°05'0 0.0
2017-Jun-20 13:00N 59°20' E 018°05'0 0.0
2017-Jun-20 12:30N 59°20' E 018°05'0 0.0
2017-Jun-20 12:00N 59°20' E 018°05'0 0.0
2017-Jun-20 11:30N 59°20' E 018°05'0 0.0
2017-Jun-20 11:00N 59°20' E 018°05'0 0.0
2017-Jun-20 10:30N 59°20' E 018°05'0 0.0
2017-Jun-20 10:00N 59°20' E 018°05'0 0.0
2017-Jun-20 09:30N 59°20' E 018°05'610.4
2017-Jun-20 08:58N 59°21' E 018°15'3 3.4
2017-Jun-20 08:04N 59°23' E 018°20'113.9
2017-Jun-20 08:00N 59°22' E 018°19'714.5
2017-Jun-20 07:30N 59°19' E 018°07'1 2.5
2017-Jun-20 06:58N 59°20' E 018°05'0 0.2
2017-Jun-20 06:29N 59°20' E 018°05'0 0.0
2017-Jun-20 05:59N 59°20' E 018°05'0 0.0
2017-Jun-20 05:29N 59°20' E 018°05'0 0.0
2017-Jun-20 04:59N 59°20' E 018°05'0 0.0
2017-Jun-20 04:29N 59°20' E 018°05'0 0.0
2017-Jun-20 03:59N 59°20' E 018°05'0 0.0
2017-Jun-20 03:29N 59°20' E 018°05'0 0.0
2017-Jun-20 02:59N 59°20' E 018°05'0 0.0
2017-Jun-20 02:29N 59°20' E 018°05'0 0.0
2017-Jun-20 01:59N 59°20' E 018°05'0 0.0
2017-Jun-20 01:29N 59°20' E 018°05'0 0.0
2017-Jun-20 00:59N 59°20' E 018°05'0 0.0
2017-Jun-20 00:29N 59°20' E 018°05'0 0.0
2017-Jun-19 23:59N 59°20' E 018°05'0 0.0
2017-Jun-19 23:29N 59°20' E 018°05'0 0.0
2017-Jun-19 22:59N 59°20' E 018°05'0 0.0
2017-Jun-19 22:29N 59°20' E 018°05'0 0.0
2017-Jun-19 21:59N 59°20' E 018°05'0 0.0
2017-Jun-19 21:29N 59°20' E 018°05'0 0.0
2017-Jun-19 20:59N 59°20' E 018°05'0 0.0
2017-Jun-19 20:29N 59°20' E 018°05'0 0.0
2017-Jun-19 19:59N 59°20' E 018°05'0 0.0
2017-Jun-19 19:29N 59°20' E 018°05'0 0.0
2017-Jun-19 18:59N 59°20' E 018°05'0 0.0
2017-Jun-19 18:29N 59°20' E 018°05'0 0.0
2017-Jun-19 17:59N 59°20' E 018°05'0 0.0
2017-Jun-19 17:29N 59°20' E 018°05'0 0.0
2017-Jun-19 16:59N 59°20' E 018°05'0 0.0
2017-Jun-19 16:29N 59°20' E 018°05'0 0.0
2017-Jun-19 15:59N 59°20' E 018°05'2 3.1
2017-Jun-19 15:30N 59°19' E 018°07'8 1.0
2017-Jun-19 08:03N 59°23' E 018°20'112.9
2017-Jun-19 07:58N 59°22' E 018°19'614.0
2017-Jun-19 07:30N 59°19' E 018°08'2 3.6
2017-Jun-19 06:58N 59°20' E 018°05'0 0.2
2017-Jun-19 06:28N 59°20' E 018°05'0 0.0
2017-Jun-19 05:58N 59°20' E 018°05'0 0.0
2017-Jun-19 05:28N 59°20' E 018°05'0 0.0
2017-Jun-19 04:58N 59°20' E 018°05'0 0.0
2017-Jun-19 04:28N 59°20' E 018°05'0 0.0
2017-Jun-19 03:58N 59°20' E 018°05'0 0.0
2017-Jun-19 03:28N 59°20' E 018°05'0 0.0
2017-Jun-19 02:58N 59°20' E 018°05'0 0.0
2017-Jun-19 02:28N 59°20' E 018°05'0 0.0
2017-Jun-19 01:58N 59°20' E 018°05'0 0.0
2017-Jun-19 01:28N 59°20' E 018°05'0 0.0
2017-Jun-19 00:58N 59°20' E 018°05'0 0.0
2017-Jun-19 00:28N 59°20' E 018°05'0 0.0
2017-Jun-18 23:58N 59°20' E 018°05'0 0.0
2017-Jun-18 23:28N 59°20' E 018°05'0 0.0
2017-Jun-18 22:58N 59°20' E 018°05'0 0.0
2017-Jun-18 22:28N 59°20' E 018°05'0 0.0
2017-Jun-18 21:58N 59°20' E 018°05'0 0.0
2017-Jun-18 21:28N 59°20' E 018°05'0 0.0
2017-Jun-18 20:58N 59°20' E 018°05'0 0.0
2017-Jun-18 20:28N 59°20' E 018°05'0 0.0
2017-Jun-18 19:58N 59°20' E 018°05'0 0.0
2017-Jun-18 19:28N 59°20' E 018°05'0 0.0
2017-Jun-18 18:58N 59°20' E 018°05'0 0.0
2017-Jun-18 18:28N 59°20' E 018°05'0 0.0
2017-Jun-18 17:58N 59°20' E 018°05'0 0.0
2017-Jun-18 17:22N 59°20' E 018°05'0 0.0
2017-Jun-18 16:58N 59°20' E 018°05'0 0.0
2017-Jun-18 16:28N 59°20' E 018°05'0 0.0
2017-Jun-18 15:58N 59°20' E 018°05'0 0.0
2017-Jun-18 15:28N 59°20' E 018°05'0 0.0
2017-Jun-18 14:46N 59°20' E 018°05'0 0.0
2017-Jun-18 13:52N 59°20' E 018°05'0 0.0
2017-Jun-18 13:28N 59°20' E 018°05'0 0.0
2017-Jun-18 12:46N 59°20' E 018°05'0 0.0
2017-Jun-18 12:22N 59°20' E 018°05'0 0.0
2017-Jun-18 11:58N 59°20' E 018°05'0 0.0
2017-Jun-18 11:04N 59°20' E 018°05'0 0.0
2017-Jun-18 10:58N 59°20' E 018°05'0 0.0
2017-Jun-18 10:28N 59°20' E 018°05'0 0.0
2017-Jun-18 09:58N 59°20' E 018°05'0 0.0
2017-Jun-18 09:28N 59°20' E 018°05'0 0.0
2017-Jun-18 08:58N 59°20' E 018°05'0 0.0
2017-Jun-18 08:28N 59°20' E 018°05'0 0.0
2017-Jun-18 07:58N 59°20' E 018°05'0 0.0
2017-Jun-18 07:28N 59°20' E 018°05'0 0.0
2017-Jun-18 06:58N 59°20' E 018°05'0 0.0
2017-Jun-18 06:28N 59°20' E 018°05'0 0.0
2017-Jun-18 05:58N 59°20' E 018°05'0 0.0
2017-Jun-18 05:28N 59°20' E 018°05'0 0.0
2017-Jun-18 04:58N 59°20' E 018°05'0 0.0
2017-Jun-18 04:28N 59°20' E 018°05'0 0.0
2017-Jun-18 03:58N 59°20' E 018°05'0 0.0
2017-Jun-18 03:28N 59°20' E 018°05'0 0.0
2017-Jun-18 02:58N 59°20' E 018°05'0 0.0
2017-Jun-18 02:28N 59°20' E 018°05'0 0.0
2017-Jun-18 01:58N 59°20' E 018°05'0 0.0
2017-Jun-18 01:28N 59°20' E 018°05'0 0.0
2017-Jun-18 00:58N 59°20' E 018°05'0 0.0
2017-Jun-18 00:28N 59°20' E 018°05'0 0.0
2017-Jun-17 23:58N 59°20' E 018°05'0 0.0
2017-Jun-17 23:28N 59°20' E 018°05'0 0.0
2017-Jun-17 22:58N 59°20' E 018°05'0 0.0
2017-Jun-17 22:28N 59°20' E 018°05'0 0.0
2017-Jun-17 21:58N 59°20' E 018°05'0 0.0
2017-Jun-17 21:28N 59°20' E 018°05'0 0.0
2017-Jun-17 20:58N 59°20' E 018°05'0 0.0
2017-Jun-17 20:22N 59°20' E 018°05'0 0.0
2017-Jun-17 19:58N 59°20' E 018°05'0 0.0
2017-Jun-17 19:28N 59°20' E 018°05'0 0.0
2017-Jun-17 18:58N 59°20' E 018°05'0 0.0
2017-Jun-17 18:28N 59°20' E 018°05'0 0.0
2017-Jun-17 17:58N 59°20' E 018°05'0 0.0
2017-Jun-17 17:28N 59°20' E 018°05'0 0.0
2017-Jun-17 16:58N 59°20' E 018°05'0 0.0
2017-Jun-17 16:19N 59°20' E 018°05'0 0.0
2017-Jun-17 15:58N 59°20' E 018°05'0 0.0
2017-Jun-17 15:28N 59°20' E 018°05'0 0.0
2017-Jun-17 14:58N 59°20' E 018°05'0 0.0
2017-Jun-17 14:28N 59°20' E 018°05'0 0.0
2017-Jun-17 13:22N 59°20' E 018°05'0 0.0
2017-Jun-17 12:58N 59°20' E 018°05'0 0.0
2017-Jun-17 12:28N 59°20' E 018°05'0 0.0
2017-Jun-17 11:52N 59°20' E 018°05'0 0.0
2017-Jun-17 11:22N 59°20' E 018°05'0 0.0
2017-Jun-17 10:52N 59°20' E 018°05'0 0.0
2017-Jun-17 10:22N 59°20' E 018°05'0 0.0
2017-Jun-17 09:43N 59°20' E 018°05'0 0.0
2017-Jun-17 09:28N 59°20' E 018°05'0 0.0
2017-Jun-17 08:58N 59°20' E 018°05'0 0.0
2017-Jun-17 08:22N 59°20' E 018°05'0 0.0
2017-Jun-17 07:58N 59°20' E 018°05'0 0.0
2017-Jun-17 07:28N 59°20' E 018°05'0 0.0
2017-Jun-17 06:58N 59°20' E 018°05'0 0.0
2017-Jun-17 06:28N 59°20' E 018°05'0 0.0
2017-Jun-17 05:58N 59°20' E 018°05'0 0.0
2017-Jun-17 05:28N 59°20' E 018°05'0 0.0
2017-Jun-17 04:58N 59°20' E 018°05'0 0.0
2017-Jun-17 04:28N 59°20' E 018°05'0 0.0
2017-Jun-17 03:58N 59°20' E 018°05'0 0.0
2017-Jun-17 03:28N 59°20' E 018°05'0 0.0
2017-Jun-17 02:58N 59°20' E 018°05'0 0.0
2017-Jun-17 02:28N 59°20' E 018°05'0 0.0
2017-Jun-17 01:58N 59°20' E 018°05'0 0.0
2017-Jun-17 01:28N 59°20' E 018°05'0 0.0
2017-Jun-17 00:58N 59°20' E 018°05'0 0.0
2017-Jun-17 00:28N 59°20' E 018°05'0 0.0
2017-Jun-16 23:58N 59°20' E 018°05'0 0.0
2017-Jun-16 23:28N 59°20' E 018°05'0 0.0
2017-Jun-16 22:58N 59°20' E 018°05'0 0.0
2017-Jun-16 22:28N 59°20' E 018°05'0 0.0
2017-Jun-16 21:55N 59°20' E 018°05'0 0.0
2017-Jun-16 21:28N 59°20' E 018°05'0 0.0
2017-Jun-16 20:58N 59°20' E 018°05'0 0.0
2017-Jun-16 20:30N 59°20' E 018°05'4 7.5
2017-Jun-16 20:00N 59°20' E 018°12'6 9.7
2017-Jun-16 19:21N 59°24' E 018°21'1 2.2
2017-Jun-16 18:52N 59°23' E 018°20'2 6.0
2017-Jun-16 18:30N 59°22' E 018°17'5 8.9
2017-Jun-16 17:59N 59°19' E 018°09'3 4.5
2017-Jun-16 17:25N 59°20' E 018°05'0 0.0
2017-Jun-16 16:49N 59°20' E 018°05'0 0.0
2017-Jun-16 16:25N 59°20' E 018°05'0 0.0
2017-Jun-16 15:49N 59°20' E 018°05'0 0.0
2017-Jun-16 15:25N 59°20' E 018°05'0 0.0
2017-Jun-16 14:49N 59°20' E 018°05'0 0.0
2017-Jun-16 14:25N 59°20' E 018°05'0 0.0
2017-Jun-16 13:25N 59°20' E 018°05'0 0.0
2017-Jun-16 12:55N 59°20' E 018°05'0 0.0
2017-Jun-16 12:28N 59°20' E 018°05'3 7.1
2017-Jun-16 12:00N 59°20' E 018°11'2 3.4
2017-Jun-16 11:29N 59°18' E 018°13'2 5.0
2017-Jun-16 11:00N 59°19' E 018°09'2 3.8
2017-Jun-16 10:25N 59°20' E 018°05'0 0.0
2017-Jun-16 09:49N 59°20' E 018°05'0 0.0
2017-Jun-16 09:25N 59°20' E 018°05'0 0.0
2017-Jun-16 08:55N 59°20' E 018°05'0 0.0
2017-Jun-16 08:07N 59°20' E 018°05'0 0.0
2017-Jun-16 07:49N 59°20' E 018°05'0 0.0
2017-Jun-16 07:13N 59°20' E 018°05'0 0.0
2017-Jun-16 06:37N 59°20' E 018°05'  
Track history (hours):
 
Tides and Currents Weather Stations Pressure Air Temp Water Temp Dewpoint Dewpoint Depression Visibility Wind Speed Wind Dir Waves Ship Positions

M/s Stromma Kanal

Last reported at 2017-Jun-26 06:28 UTC. Time now 2017-Jun-26 06:56 UTC.
Position N 59°20' E 018°05'.

Length 26 m.

Type: Passenger vessel. MMSI: 265609570.

Date/timePositionNaut miles runAvg speedWind from/ knotsBaromVisibWave heightAir tempDewpointWater temp
2017-Jun-26 06:28N 59°20' E 018°05'0 0.0
2017-Jun-26 05:58N 59°20' E 018°05'0 0.0
2017-Jun-26 05:28N 59°20' E 018°05'0 0.0
2017-Jun-26 04:58N 59°20' E 018°05'0 0.0
2017-Jun-26 04:28N 59°20' E 018°05'0 0.0
2017-Jun-26 03:58N 59°20' E 018°05'0 0.0
2017-Jun-26 03:28N 59°20' E 018°05'0 0.0
2017-Jun-26 02:58N 59°20' E 018°05'0 0.0
2017-Jun-26 02:28N 59°20' E 018°05'0 0.0
2017-Jun-26 01:58N 59°20' E 018°05'0 0.0
2017-Jun-26 01:28N 59°20' E 018°05'0 0.0
2017-Jun-26 00:58N 59°20' E 018°05'0 0.0
2017-Jun-26 00:28N 59°20' E 018°05'0 0.0
2017-Jun-25 23:58N 59°20' E 018°05'0 0.0
2017-Jun-25 23:28N 59°20' E 018°05'0 0.0
2017-Jun-25 22:58N 59°20' E 018°05'0 0.0
2017-Jun-25 22:28N 59°20' E 018°05'0 0.0
2017-Jun-25 21:58N 59°20' E 018°05'0 0.0
2017-Jun-25 21:28N 59°20' E 018°05'0 0.0
2017-Jun-25 20:58N 59°20' E 018°05'0 0.0
2017-Jun-25 20:28N 59°20' E 018°05'0 0.0
2017-Jun-25 19:58N 59°20' E 018°05'0 0.0
2017-Jun-25 19:28N 59°20' E 018°05'0 0.0
2017-Jun-25 18:58N 59°20' E 018°05'0 0.0
2017-Jun-25 18:28N 59°20' E 018°05'0 0.0
2017-Jun-25 17:55N 59°20' E 018°05'0 0.0
2017-Jun-25 17:25N 59°20' E 018°05'0 0.0
2017-Jun-25 16:55N 59°20' E 018°05'0 0.0
2017-Jun-25 16:25N 59°20' E 018°05'0 0.0
2017-Jun-25 15:58N 59°20' E 018°05'2 3.8
2017-Jun-25 15:30N 59°19' E 018°08'3 6.7
2017-Jun-25 15:00N 59°18' E 018°14'5 0.8
2017-Jun-25 09:02N 59°17' E 018°23'1 8.1
2017-Jun-25 08:58N 59°17' E 018°22'4 8.5
2017-Jun-25 08:29N 59°18' E 018°14'3 6.5
2017-Jun-25 08:00N 59°19' E 018°09'2 4.5
2017-Jun-25 07:30N 59°20' E 018°05'0 0.0
2017-Jun-25 06:57N 59°20' E 018°05'0 0.0
2017-Jun-25 06:30N 59°20' E 018°05'0 0.0
2017-Jun-25 05:51N 59°20' E 018°05'0 0.0
2017-Jun-25 05:21N 59°20' E 018°05'0 0.0
2017-Jun-25 04:51N 59°20' E 018°05'0 0.0
2017-Jun-25 04:27N 59°20' E 018°05'0 0.0
2017-Jun-25 03:57N 59°20' E 018°05'0 0.0
2017-Jun-25 03:27N 59°20' E 018°05'0 0.0
2017-Jun-25 02:51N 59°20' E 018°05'0 0.0
2017-Jun-25 02:30N 59°20' E 018°05'0 0.0
2017-Jun-25 02:00N 59°20' E 018°05'0 0.0
2017-Jun-25 01:30N 59°20' E 018°05'0 0.0
2017-Jun-25 01:00N 59°20' E 018°05'0 0.0
2017-Jun-25 00:30N 59°20' E 018°05'0 0.0
2017-Jun-25 00:00N 59°20' E 018°05'0 0.0
2017-Jun-24 23:30N 59°20' E 018°05'0 0.0
2017-Jun-24 23:00N 59°20' E 018°05'0 0.0
2017-Jun-24 22:30N 59°20' E 018°05'0 0.0
2017-Jun-24 22:00N 59°20' E 018°05'0 0.0
2017-Jun-24 21:30N 59°20' E 018°05'0 0.0
2017-Jun-24 21:00N 59°20' E 018°05'0 0.0
2017-Jun-24 20:30N 59°20' E 018°05'0 0.0
2017-Jun-24 20:00N 59°20' E 018°05'0 0.0
2017-Jun-24 19:30N 59°20' E 018°05'0 0.0
2017-Jun-24 19:00N 59°20' E 018°05'0 0.0
2017-Jun-24 18:27N 59°20' E 018°05'0 0.0
2017-Jun-24 17:51N 59°20' E 018°05'0 0.0
2017-Jun-24 17:27N 59°20' E 018°05'0 0.0
2017-Jun-24 16:57N 59°20' E 018°05'0 0.0
2017-Jun-24 16:27N 59°20' E 018°05'0 0.0
2017-Jun-24 15:57N 59°20' E 018°05'1 3.3
2017-Jun-24 15:30N 59°19' E 018°07'4 7.3
2017-Jun-24 14:59N 59°18' E 018°14'4 0.6
2017-Jun-24 08:59N 59°18' E 018°21'4 8.2
2017-Jun-24 08:29N 59°18' E 018°13'3 5.8
2017-Jun-24 08:00N 59°19' E 018°08'2 4.0
2017-Jun-24 07:29N 59°20' E 018°05'0 0.0
2017-Jun-24 06:58N 59°20' E 018°05'0 0.0
2017-Jun-24 06:29N 59°20' E 018°05'0 0.0
2017-Jun-24 05:59N 59°20' E 018°05'0 0.0
2017-Jun-24 05:29N 59°20' E 018°05'0 0.0
2017-Jun-24 04:59N 59°20' E 018°05'0 0.0
2017-Jun-24 04:23N 59°20' E 018°05'0 0.0
2017-Jun-24 03:59N 59°20' E 018°05'0 0.0
2017-Jun-24 03:23N 59°20' E 018°05'0 0.0
2017-Jun-24 02:53N 59°20' E 018°05'0 0.0
2017-Jun-24 02:29N 59°20' E 018°05'0 0.0
2017-Jun-24 01:59N 59°20' E 018°05'0 0.0
2017-Jun-24 01:29N 59°20' E 018°05'0 0.0
2017-Jun-24 00:53N 59°20' E 018°05'0 0.0
2017-Jun-24 00:29N 59°20' E 018°05'0 0.0
2017-Jun-23 23:59N 59°20' E 018°05'0 0.0
2017-Jun-23 23:29N 59°20' E 018°05'0 0.0
2017-Jun-23 22:59N 59°20' E 018°05'0 0.0
2017-Jun-23 22:29N 59°20' E 018°05'0 0.0
2017-Jun-23 21:59N 59°20' E 018°05'0 0.0
2017-Jun-23 21:29N 59°20' E 018°05'0 0.0
2017-Jun-23 20:59N 59°20' E 018°05'0 0.0
2017-Jun-23 20:29N 59°20' E 018°05'4 7.9
2017-Jun-23 20:00N 59°20' E 018°12'5 4.5
2017-Jun-23 18:50N 59°23' E 018°20'2 4.7
2017-Jun-23 18:28N 59°22' E 018°18'4 9.0
2017-Jun-23 17:59N 59°20' E 018°11'3 6.2
2017-Jun-23 17:30N 59°20' E 018°05'0 0.2
2017-Jun-23 16:57N 59°20' E 018°05'0 0.0
2017-Jun-23 16:27N 59°20' E 018°05'0 0.0
2017-Jun-23 15:57N 59°20' E 018°05'2 5.2
2017-Jun-23 15:28N 59°19' E 018°09'3 6.8
2017-Jun-23 15:00N 59°18' E 018°15'4 0.6
2017-Jun-23 09:01N 59°17' E 018°22'0 8.3
2017-Jun-23 08:59N 59°17' E 018°22'4 8.2
2017-Jun-23 08:30N 59°18' E 018°14'3 6.9
2017-Jun-23 08:00N 59°19' E 018°08'2 2.5
2017-Jun-23 07:19N 59°20' E 018°05'0 0.0
2017-Jun-23 06:55N 59°20' E 018°05'0 0.0
2017-Jun-23 06:25N 59°20' E 018°05'0 0.0
2017-Jun-23 05:55N 59°20' E 018°05'0 0.0
2017-Jun-23 05:19N 59°20' E 018°05'0 0.0
2017-Jun-23 04:55N 59°20' E 018°05'0 0.0
2017-Jun-23 04:25N 59°20' E 018°05'0 0.0
2017-Jun-23 03:55N 59°20' E 018°05'0 0.0
2017-Jun-23 03:28N 59°20' E 018°05'0 0.0
2017-Jun-23 02:49N 59°20' E 018°05'0 0.0
2017-Jun-23 02:25N 59°20' E 018°05'0 0.0
2017-Jun-23 01:55N 59°20' E 018°05'0 0.0
2017-Jun-23 01:25N 59°20' E 018°05'0 0.0
2017-Jun-23 00:55N 59°20' E 018°05'0 0.0
2017-Jun-23 00:25N 59°20' E 018°05'0 0.0
2017-Jun-22 23:55N 59°20' E 018°05'0 0.0
2017-Jun-22 23:25N 59°20' E 018°05'0 0.0
2017-Jun-22 22:55N 59°20' E 018°05'0 0.0
2017-Jun-22 22:25N 59°20' E 018°05'0 0.0
2017-Jun-22 21:49N 59°20' E 018°05'0 0.0
2017-Jun-22 21:25N 59°20' E 018°05'0 0.0
2017-Jun-22 20:55N 59°20' E 018°05'0 0.0
2017-Jun-22 20:30N 59°20' E 018°05'4 7.7
2017-Jun-22 19:59N 59°20' E 018°12'3 2.2
2017-Jun-22 18:32N 59°22' E 018°18'0 9.6
2017-Jun-22 18:30N 59°22' E 018°17'4 8.8
2017-Jun-22 18:00N 59°19' E 018°10'3 5.2
2017-Jun-22 17:28N 59°20' E 018°05'0 0.0
2017-Jun-22 16:55N 59°20' E 018°05'0 0.0
2017-Jun-22 16:25N 59°20' E 018°05'0 0.0
2017-Jun-22 15:55N 59°20' E 018°05'0 0.0
2017-Jun-22 15:25N 59°20' E 018°05'0 0.0
2017-Jun-22 14:49N 59°20' E 018°05'0 0.0
2017-Jun-22 14:25N 59°20' E 018°05'0 0.0
2017-Jun-22 13:25N 59°20' E 018°05'0 0.0
2017-Jun-22 12:55N 59°20' E 018°05'0 0.0
2017-Jun-22 12:25N 59°20' E 018°05'0 0.0
2017-Jun-22 11:55N 59°20' E 018°05'0 0.0
2017-Jun-22 11:19N 59°20' E 018°05'0 0.0
2017-Jun-22 10:55N 59°20' E 018°05'0 0.0
2017-Jun-22 10:25N 59°20' E 018°05'0 0.0
2017-Jun-22 09:55N 59°20' E 018°05'0 0.0
2017-Jun-22 09:25N 59°20' E 018°05'0 0.0
2017-Jun-22 08:58N 59°20' E 018°05'0 0.0
2017-Jun-22 08:19N 59°20' E 018°05'0 0.1
2017-Jun-22 07:43N 59°20' E 018°05'0 0.5
2017-Jun-22 07:30N 59°20' E 018°05'0 0.3
2017-Jun-22 06:58N 59°20' E 018°05'0 0.0
2017-Jun-22 06:28N 59°20' E 018°05'0 0.0
2017-Jun-22 05:58N 59°20' E 018°05'0 0.0
2017-Jun-22 05:28N 59°20' E 018°05'0 0.0
2017-Jun-22 04:58N 59°20' E 018°05'0 0.0
2017-Jun-22 04:28N 59°20' E 018°05'0 0.0
2017-Jun-22 03:58N 59°20' E 018°05'0 0.0
2017-Jun-22 03:28N 59°20' E 018°05'0 0.0
2017-Jun-22 02:58N 59°20' E 018°05'0 0.0
2017-Jun-22 02:28N 59°20' E 018°05'0 0.0
2017-Jun-22 01:58N 59°20' E 018°05'0 0.0
2017-Jun-22 01:22N 59°20' E 018°05'0 0.0
2017-Jun-22 00:58N 59°20' E 018°05'0 0.0
2017-Jun-22 00:28N 59°20' E 018°05'0 0.0
2017-Jun-21 23:58N 59°20' E 018°05'0 0.0
2017-Jun-21 23:28N 59°20' E 018°05'0 0.0
2017-Jun-21 22:58N 59°20' E 018°05'0 0.0
2017-Jun-21 22:28N 59°20' E 018°05'0 0.0
2017-Jun-21 21:58N 59°20' E 018°05'0 0.0
2017-Jun-21 21:28N 59°20' E 018°05'0 0.0
2017-Jun-21 20:58N 59°20' E 018°05'0 0.2
2017-Jun-21 20:30N 59°20' E 018°05'4 7.1
2017-Jun-21 19:59N 59°20' E 018°12'510.0
2017-Jun-21 19:30N 59°23' E 018°20'2 2.8
2017-Jun-21 18:57N 59°24' E 018°22'3 5.9
2017-Jun-21 18:27N 59°22' E 018°18'4 9.3
2017-Jun-21 18:00N 59°20' E 018°11'3 6.2
2017-Jun-21 17:30N 59°20' E 018°05'0 0.0
2017-Jun-21 16:54N 59°20' E 018°05'0 0.0
2017-Jun-21 16:24N 59°20' E 018°05'0 0.0
2017-Jun-21 16:00N 59°20' E 018°05'1 1.2
2017-Jun-21 15:30N 59°20' E 018°05'712.4
2017-Jun-21 14:58N 59°22' E 018°17'2 0.2
2017-Jun-21 08:08N 59°23' E 018°20'212.9
2017-Jun-21 08:00N 59°22' E 018°17'613.0
2017-Jun-21 07:30N 59°19' E 018°06'1 1.2
2017-Jun-21 06:59N 59°20' E 018°05'0 0.2
2017-Jun-21 06:29N 59°20' E 018°05'0 0.0
2017-Jun-21 05:59N 59°20' E 018°05'0 0.0
2017-Jun-21 05:29N 59°20' E 018°05'0 0.0
2017-Jun-21 04:53N 59°20' E 018°05'0 0.0
2017-Jun-21 04:29N 59°20' E 018°05'0 0.0
2017-Jun-21 03:59N 59°20' E 018°05'0 0.0
2017-Jun-21 03:29N 59°20' E 018°05'0 0.0
2017-Jun-21 02:53N 59°20' E 018°05'0 0.0
2017-Jun-21 02:29N 59°20' E 018°05'0 0.0
2017-Jun-21 01:59N 59°20' E 018°05'0 0.0
2017-Jun-21 01:29N 59°20' E 018°05'0 0.0
2017-Jun-21 01:00N 59°20' E 018°05'0 0.0
2017-Jun-21 00:29N 59°20' E 018°05'0 0.0
2017-Jun-20 23:59N 59°20' E 018°05'0 0.0
2017-Jun-20 23:29N 59°20' E 018°05'0 0.0
2017-Jun-20 22:59N 59°20' E 018°05'0 0.0
2017-Jun-20 22:29N 59°20' E 018°05'0 0.0
2017-Jun-20 21:59N 59°20' E 018°05'0 0.0
2017-Jun-20 21:29N 59°20' E 018°05'0 0.0
2017-Jun-20 20:59N 59°20' E 018°05'0 0.0
2017-Jun-20 20:31N 59°20' E 018°05'4 7.1
2017-Jun-20 20:00N 59°20' E 018°12'510.0
2017-Jun-20 19:30N 59°23' E 018°20'0 0.3
2017-Jun-20 18:48N 59°23' E 018°20'2 5.0
2017-Jun-20 18:27N 59°22' E 018°18'4 9.2
2017-Jun-20 18:00N 59°20' E 018°11'3 6.1
2017-Jun-20 17:30N 59°20' E 018°05'0 0.0
2017-Jun-20 17:00N 59°20' E 018°05'0 0.0
2017-Jun-20 16:24N 59°20' E 018°05'0 0.0
2017-Jun-20 15:54N 59°20' E 018°05'0 0.0
2017-Jun-20 15:21N 59°20' E 018°05'0 0.0
2017-Jun-20 15:00N 59°20' E 018°05'0 0.0
2017-Jun-20 14:30N 59°20' E 018°05'0 0.0
2017-Jun-20 13:30N 59°20' E 018°05'0 0.0
2017-Jun-20 13:00N 59°20' E 018°05'0 0.0
2017-Jun-20 12:30N 59°20' E 018°05'0 0.0
2017-Jun-20 12:00N 59°20' E 018°05'0 0.0
2017-Jun-20 11:30N 59°20' E 018°05'0 0.0
2017-Jun-20 11:00N 59°20' E 018°05'0 0.0
2017-Jun-20 10:30N 59°20' E 018°05'0 0.0
2017-Jun-20 10:00N 59°20' E 018°05'0 0.0
2017-Jun-20 09:30N 59°20' E 018°05'610.4
2017-Jun-20 08:58N 59°21' E 018°15'3 3.4
2017-Jun-20 08:04N 59°23' E 018°20'113.9
2017-Jun-20 08:00N 59°22' E 018°19'714.5
2017-Jun-20 07:30N 59°19' E 018°07'1 2.5
2017-Jun-20 06:58N 59°20' E 018°05'0 0.2
2017-Jun-20 06:29N 59°20' E 018°05'0 0.0
2017-Jun-20 05:59N 59°20' E 018°05'0 0.0
2017-Jun-20 05:29N 59°20' E 018°05'0 0.0
2017-Jun-20 04:59N 59°20' E 018°05'0 0.0
2017-Jun-20 04:29N 59°20' E 018°05'0 0.0
2017-Jun-20 03:59N 59°20' E 018°05'0 0.0
2017-Jun-20 03:29N 59°20' E 018°05'0 0.0
2017-Jun-20 02:59N 59°20' E 018°05'0 0.0
2017-Jun-20 02:29N 59°20' E 018°05'0 0.0
2017-Jun-20 01:59N 59°20' E 018°05'0 0.0
2017-Jun-20 01:29N 59°20' E 018°05'0 0.0
2017-Jun-20 00:59N 59°20' E 018°05'0 0.0
2017-Jun-20 00:29N 59°20' E 018°05'0 0.0
2017-Jun-19 23:59N 59°20' E 018°05'0 0.0
2017-Jun-19 23:29N 59°20' E 018°05'0 0.0
2017-Jun-19 22:59N 59°20' E 018°05'0 0.0
2017-Jun-19 22:29N 59°20' E 018°05'0 0.0
2017-Jun-19 21:59N 59°20' E 018°05'0 0.0
2017-Jun-19 21:29N 59°20' E 018°05'0 0.0
2017-Jun-19 20:59N 59°20' E 018°05'0 0.0
2017-Jun-19 20:29N 59°20' E 018°05'0 0.0
2017-Jun-19 19:59N 59°20' E 018°05'0 0.0
2017-Jun-19 19:29N 59°20' E 018°05'0 0.0
2017-Jun-19 18:59N 59°20' E 018°05'0 0.0
2017-Jun-19 18:29N 59°20' E 018°05'0 0.0
2017-Jun-19 17:59N 59°20' E 018°05'0 0.0
2017-Jun-19 17:29N 59°20' E 018°05'0 0.0
2017-Jun-19 16:59N 59°20' E 018°05'0 0.0
2017-Jun-19 16:29N 59°20' E 018°05'0 0.0
2017-Jun-19 15:59N 59°20' E 018°05'2 3.1
2017-Jun-19 15:30N 59°19' E 018°07'8 1.0
2017-Jun-19 08:03N 59°23' E 018°20'112.9
2017-Jun-19 07:58N 59°22' E 018°19'614.0
2017-Jun-19 07:30N 59°19' E 018°08'2 3.6
2017-Jun-19 06:58N 59°20' E 018°05'0 0.2
2017-Jun-19 06:28N 59°20' E 018°05'0 0.0
2017-Jun-19 05:58N 59°20' E 018°05'0 0.0
2017-Jun-19 05:28N 59°20' E 018°05'0 0.0
2017-Jun-19 04:58N 59°20' E 018°05'0 0.0
2017-Jun-19 04:28N 59°20' E 018°05'0 0.0
2017-Jun-19 03:58N 59°20' E 018°05'0 0.0
2017-Jun-19 03:28N 59°20' E 018°05'0 0.0
2017-Jun-19 02:58N 59°20' E 018°05'0 0.0
2017-Jun-19 02:28N 59°20' E 018°05'0 0.0
2017-Jun-19 01:58N 59°20' E 018°05'0 0.0
2017-Jun-19 01:28N 59°20' E 018°05'0 0.0
2017-Jun-19 00:58N 59°20' E 018°05'0 0.0
2017-Jun-19 00:28N 59°20' E 018°05'0 0.0
2017-Jun-18 23:58N 59°20' E 018°05'0 0.0
2017-Jun-18 23:28N 59°20' E 018°05'0 0.0
2017-Jun-18 22:58N 59°20' E 018°05'0 0.0
2017-Jun-18 22:28N 59°20' E 018°05'0 0.0
2017-Jun-18 21:58N 59°20' E 018°05'0 0.0
2017-Jun-18 21:28N 59°20' E 018°05'0 0.0
2017-Jun-18 20:58N 59°20' E 018°05'0 0.0
2017-Jun-18 20:28N 59°20' E 018°05'0 0.0
2017-Jun-18 19:58N 59°20' E 018°05'0 0.0
2017-Jun-18 19:28N 59°20' E 018°05'0 0.0
2017-Jun-18 18:58N 59°20' E 018°05'0 0.0
2017-Jun-18 18:28N 59°20' E 018°05'0 0.0
2017-Jun-18 17:58N 59°20' E 018°05'0 0.0
2017-Jun-18 17:22N 59°20' E 018°05'0 0.0
2017-Jun-18 16:58N 59°20' E 018°05'0 0.0
2017-Jun-18 16:28N 59°20' E 018°05'0 0.0
2017-Jun-18 15:58N 59°20' E 018°05'0 0.0
2017-Jun-18 15:28N 59°20' E 018°05'0 0.0
2017-Jun-18 14:46N 59°20' E 018°05'0 0.0
2017-Jun-18 13:52N 59°20' E 018°05'0 0.0
2017-Jun-18 13:28N 59°20' E 018°05'0 0.0
2017-Jun-18 12:46N 59°20' E 018°05'0 0.0
2017-Jun-18 12:22N 59°20' E 018°05'0 0.0
2017-Jun-18 11:58N 59°20' E 018°05'0 0.0
2017-Jun-18 11:04N 59°20' E 018°05'0 0.0
2017-Jun-18 10:58N 59°20' E 018°05'0 0.0
2017-Jun-18 10:28N 59°20' E 018°05'0 0.0
2017-Jun-18 09:58N 59°20' E 018°05'0 0.0
2017-Jun-18 09:28N 59°20' E 018°05'0 0.0
2017-Jun-18 08:58N 59°20' E 018°05'0 0.0
2017-Jun-18 08:28N 59°20' E 018°05'0 0.0
2017-Jun-18 07:58N 59°20' E 018°05'0 0.0
2017-Jun-18 07:28N 59°20' E 018°05'0 0.0
2017-Jun-18 06:58N 59°20' E 018°05'0 0.0
2017-Jun-18 06:28N 59°20' E 018°05'0 0.0
2017-Jun-18 05:58N 59°20' E 018°05'0 0.0
2017-Jun-18 05:28N 59°20' E 018°05'0 0.0
2017-Jun-18 04:58N 59°20' E 018°05'0 0.0
2017-Jun-18 04:28N 59°20' E 018°05'0 0.0
2017-Jun-18 03:58N 59°20' E 018°05'0 0.0
2017-Jun-18 03:28N 59°20' E 018°05'0 0.0
2017-Jun-18 02:58N 59°20' E 018°05'0 0.0
2017-Jun-18 02:28N 59°20' E 018°05'0 0.0
2017-Jun-18 01:58N 59°20' E 018°05'0 0.0
2017-Jun-18 01:28N 59°20' E 018°05'0 0.0
2017-Jun-18 00:58N 59°20' E 018°05'0 0.0
2017-Jun-18 00:28N 59°20' E 018°05'0 0.0
2017-Jun-17 23:58N 59°20' E 018°05'0 0.0
2017-Jun-17 23:28N 59°20' E 018°05'0 0.0
2017-Jun-17 22:58N 59°20' E 018°05'0 0.0
2017-Jun-17 22:28N 59°20' E 018°05'0 0.0
2017-Jun-17 21:58N 59°20' E 018°05'0 0.0
2017-Jun-17 21:28N 59°20' E 018°05'0 0.0
2017-Jun-17 20:58N 59°20' E 018°05'0 0.0
2017-Jun-17 20:22N 59°20' E 018°05'0 0.0
2017-Jun-17 19:58N 59°20' E 018°05'0 0.0
2017-Jun-17 19:28N 59°20' E 018°05'0 0.0
2017-Jun-17 18:58N 59°20' E 018°05'0 0.0
2017-Jun-17 18:28N 59°20' E 018°05'0 0.0
2017-Jun-17 17:58N 59°20' E 018°05'0 0.0
2017-Jun-17 17:28N 59°20' E 018°05'0 0.0
2017-Jun-17 16:58N 59°20' E 018°05'0 0.0
2017-Jun-17 16:19N 59°20' E 018°05'0 0.0
2017-Jun-17 15:58N 59°20' E 018°05'0 0.0
2017-Jun-17 15:28N 59°20' E 018°05'0 0.0
2017-Jun-17 14:58N 59°20' E 018°05'0 0.0
2017-Jun-17 14:28N 59°20' E 018°05'0 0.0
2017-Jun-17 13:22N 59°20' E 018°05'0 0.0
2017-Jun-17 12:58N 59°20' E 018°05'0 0.0
2017-Jun-17 12:28N 59°20' E 018°05'0 0.0
2017-Jun-17 11:52N 59°20' E 018°05'0 0.0
2017-Jun-17 11:22N 59°20' E 018°05'0 0.0
2017-Jun-17 10:52N 59°20' E 018°05'0 0.0
2017-Jun-17 10:22N 59°20' E 018°05'0 0.0
2017-Jun-17 09:43N 59°20' E 018°05'0 0.0
2017-Jun-17 09:28N 59°20' E 018°05'0 0.0
2017-Jun-17 08:58N 59°20' E 018°05'0 0.0
2017-Jun-17 08:22N 59°20' E 018°05'0 0.0
2017-Jun-17 07:58N 59°20' E 018°05'0 0.0
2017-Jun-17 07:28N 59°20' E 018°05'0 0.0
2017-Jun-17 06:58N 59°20' E 018°05'0 0.0
2017-Jun-17 06:28N 59°20' E 018°05'0 0.0
2017-Jun-17 05:58N 59°20' E 018°05'0 0.0
2017-Jun-17 05:28N 59°20' E 018°05'0 0.0
2017-Jun-17 04:58N 59°20' E 018°05'0 0.0
2017-Jun-17 04:28N 59°20' E 018°05'0 0.0
2017-Jun-17 03:58N 59°20' E 018°05'0 0.0
2017-Jun-17 03:28N 59°20' E 018°05'0 0.0
2017-Jun-17 02:58N 59°20' E 018°05'0 0.0
2017-Jun-17 02:28N 59°20' E 018°05'0 0.0
2017-Jun-17 01:58N 59°20' E 018°05'0 0.0
2017-Jun-17 01:28N 59°20' E 018°05'0 0.0
2017-Jun-17 00:58N 59°20' E 018°05'0 0.0
2017-Jun-17 00:28N 59°20' E 018°05'0 0.0
2017-Jun-16 23:58N 59°20' E 018°05'0 0.0
2017-Jun-16 23:28N 59°20' E 018°05'0 0.0
2017-Jun-16 22:58N 59°20' E 018°05'0 0.0
2017-Jun-16 22:28N 59°20' E 018°05'0 0.0
2017-Jun-16 21:55N 59°20' E 018°05'0 0.0
2017-Jun-16 21:28N 59°20' E 018°05'0 0.0
2017-Jun-16 20:58N 59°20' E 018°05'0 0.0
2017-Jun-16 20:30N 59°20' E 018°05'4 7.5
2017-Jun-16 20:00N 59°20' E 018°12'6 9.7
2017-Jun-16 19:21N 59°24' E 018°21'1 2.2
2017-Jun-16 18:52N 59°23' E 018°20'2 6.0
2017-Jun-16 18:30N 59°22' E 018°17'5 8.9
2017-Jun-16 17:59N 59°19' E 018°09'3 4.5
2017-Jun-16 17:25N 59°20' E 018°05'0 0.0
2017-Jun-16 16:49N 59°20' E 018°05'0 0.0
2017-Jun-16 16:25N 59°20' E 018°05'0 0.0
2017-Jun-16 15:49N 59°20' E 018°05'0 0.0
2017-Jun-16 15:25N 59°20' E 018°05'0 0.0
2017-Jun-16 14:49N 59°20' E 018°05'0 0.0
2017-Jun-16 14:25N 59°20' E 018°05'0 0.0
2017-Jun-16 13:25N 59°20' E 018°05'0 0.0
2017-Jun-16 12:55N 59°20' E 018°05'0 0.0
2017-Jun-16 12:28N 59°20' E 018°05'3 7.1
2017-Jun-16 12:00N 59°20' E 018°11'2 3.4
2017-Jun-16 11:29N 59°18' E 018°13'2 5.0
2017-Jun-16 11:00N 59°19' E 018°09'2 3.8
2017-Jun-16 10:25N 59°20' E 018°05'0 0.0
2017-Jun-16 09:49N 59°20' E 018°05'0 0.0
2017-Jun-16 09:25N 59°20' E 018°05'0 0.0
2017-Jun-16 08:55N 59°20' E 018°05'0 0.0
2017-Jun-16 08:07N 59°20' E 018°05'0 0.0
2017-Jun-16 07:49N 59°20' E 018°05'0 0.0
2017-Jun-16 07:13N 59°20' E 018°05'0 0.0
2017-Jun-16 06:37N 59°20' E 018°05'  

Dump ship's entire track history